Latest Weather Observations for Laverton

IDV60901

Issued at 3:55 am EST Saturday 30 August 2014 (issued every 10 minutes, with the page automatically refreshed every 10 minutes)

About weather observations | Map of Melbourne area stations | Latest observations for Melbourne area | Other Formats
Station Details ID: 087031 Name: LAVERTON RAAF Lat: -37.86 Lon: 144.76 Height: 20.1 m
Data from the previous 72 hours. | See also: Recent months at Laverton
Date/Time
EST
Tmp

°C
App
Tmp
°C
Dew
Point
°C
Rel
Hum
%
Delta-T

°C
Wind Press
QNH
hPa
Press
MSL
hPa
Rain
since
9 am
mm
Dir
 
Spd
km/h
Gust
km/h
Spd
kts
Gust
kts
30/03:30am 10.9 10.5 9.8 93 0.6 W 2 7 1 4 1025.8 1025.8 0.0
30/03:00am 11.0 9.7 9.9 93 0.6 W 7 9 4 5 1026.0 1026.0 0.0
30/02:30am 11.0 9.7 9.8 92 0.6 W 7 9 4 5 1026.1 1026.1 0.0
30/02:00am 11.2 9.5 9.9 92 0.7 W 9 11 5 6 1026.5 1026.5 0.0
30/01:30am 11.2 9.9 9.9 92 0.7 SSW 7 9 4 5 1026.7 1026.7 0.0
30/01:00am 11.2 10.5 9.9 92 0.7 SSW 4 9 2 5 1026.9 1026.9 0.0
30/12:30am 11.0 9.8 9.6 91 0.7 SSW 6 7 3 4 1027.2 1027.2 0.0
30/12:00am 11.3 11.3 9.7 90 0.8 SSW 0 4 0 2 1027.3 1027.3 0.0
 
Date/Time
EST
Tmp

°C
App
Tmp
°C
Dew
Point
°C
Rel
Hum
%
Delta-T

°C
Wind Press
QNH
hPa
Press
MSL
hPa
Rain
since
9 am
mm
Dir
 
Spd
km/h
Gust
km/h
Spd
kts
Gust
kts
29/11:30pm 11.3 9.9 9.7 90 0.8 SSW 7 9 4 5 1027.7 1027.7 0.0
29/11:16pm 11.3 9.9 9.7 90 0.8 SSW 7 9 4 5 1027.7 1027.7 0.0
29/11:00pm 11.3 9.9 9.7 90 0.8 S 7 9 4 5 1027.8 1027.8 0.0
29/10:41pm 11.3 9.9 9.6 89 0.9 S 7 7 4 4 1027.8 1027.8 0.0
29/10:30pm 11.3 9.9 9.6 89 0.9 S 7 9 4 5 1027.9 1027.9 0.0
29/10:00pm 11.7 10.4 9.9 89 0.9 S 7 11 4 6 1028.1 1028.1 0.0
29/09:30pm 11.4 10.0 9.5 88 1.0 S 7 13 4 7 1028.2 1028.2 0.0
29/09:00pm 11.6 10.3 9.9 89 0.9 SSE 7 11 4 6 1028.1 1028.1 0.0
29/08:30pm 11.1 9.8 9.2 88 0.9 S 6 7 3 4 1028.3 1028.3 0.0
29/08:00pm 11.1 9.6 9.0 87 1.0 SSE 7 11 4 6 1028.1 1028.1 0.0
29/07:30pm 11.7 9.4 9.1 84 1.3 SSW 11 15 6 8 1028.0 1028.0 0.0
29/07:00pm 12.1 9.5 9.3 83 1.4 SSW 13 19 7 10 1028.0 1028.0 0.0
29/06:30pm 12.4 10.1 9.1 80 1.7 S 11 17 6 9 1028.0 1028.0 0.0
29/06:00pm 12.4 9.6 8.7 78 1.8 S 13 17 7 9 1027.8 1027.8 0.0
29/05:30pm 13.0 10.2 8.5 74 2.2 SSE 13 17 7 9 1027.7 1027.7 0.0
29/05:00pm 13.2 11.1 8.3 72 2.4 SSE 9 13 5 7 1027.8 1027.8 0.0
29/04:30pm 13.6 11.5 8.4 71 2.6 SE 9 17 5 9 1027.8 1027.8 0.0
29/04:00pm 13.8 11.4 8.8 72 2.5 SE 11 17 6 9 1027.7 1027.7 0.0
29/03:30pm 13.6 11.5 8.4 71 2.6 SE 9 15 5 8 1027.7 1027.7 0.0
29/03:00pm 13.4 10.7 8.9 74 2.3 SSE 13 19 7 10 1027.8 1027.8 0.0
29/02:30pm 13.9 11.2 8.9 72 2.5 SSE 13 19 7 10 1028.1 1028.1 0.0
29/02:00pm 13.7 11.3 8.7 72 2.5 SSE 11 20 6 11 1028.2 1028.2 0.0
29/01:30pm 13.6 11.8 9.5 76 2.1 ESE 9 15 5 8 1028.3 1028.3 0.0
29/01:00pm 13.4 11.9 10.4 82 1.5 ESE 9 13 5 7 1028.8 1028.8 0.0
29/12:58pm 13.5 12.0 10.7 83 1.5 E 9 13 5 7 1028.8 1028.8 0.0
29/12:30pm 13.0 12.7 11.6 91 0.7 ENE 4 13 2 7 1029.2 1029.2 0.0
29/12:25pm 13.1 12.9 11.8 92 0.7 NE 4 7 2 4 1029.3 1029.3 0.0
29/12:02pm 12.4 13.0 11.9 97 0.3 CALM 0 6 0 3 1029.6 1029.6 0.0
29/12:00pm 12.4 13.1 12.1 98 0.2 CALM 0 6 0 3 1029.7 1029.7 0.0
29/11:30am 11.5 10.6 11.3 99 0.1 NW 7 9 4 5 1030.1 1030.1 0.0
29/11:00am 10.7 9.2 10.5 99 0.1 WNW 9 13 5 7 1030.2 1030.2 0.0
29/10:30am 10.9 8.7 10.7 99 0.1 WNW 13 17 7 9 1030.2 1030.2 0.0
29/10:00am 10.9 9.4 10.7 99 0.1 WNW 9 15 5 8 1030.3 1030.3 0.0
29/09:30am 10.4 9.2 10.2 99 0.1 W 7 9 4 5 1030.3 1030.3 0.0
29/09:00am 10.2 8.9 10.0 99 0.1 NW 7 9 4 5 1030.3 1030.3 0.2
29/08:30am 9.9 8.2 9.8 99 0.1 NW 9 11 5 6 1029.9 1029.9 0.2
29/08:00am 9.4 7.9 9.3 99 0.0 NW 7 9 4 5 1029.7 1029.7 0.2
29/07:30am 9.1 7.6 9.0 99 0.0 NW 7 9 4 5 1029.5 1029.5 0.2
29/07:00am 9.1 7.7 9.0 99 0.0 NW 6 7 3 4 1029.2 1029.2 0.2
29/06:30am 9.0 7.4 8.9 99 0.0 NW 7 9 4 5 1028.9 1028.9 0.2
29/06:00am 8.9 7.3 8.8 99 0.0 NW 7 9 4 5 1028.5 1028.5 0.2
29/05:30am 9.0 7.1 8.9 99 0.0 NW 9 11 5 6 1028.4 1028.4 0.2
29/05:00am 9.1 7.6 9.0 99 0.0 NW 7 9 4 5 1028.3 1028.3 0.2
29/04:30am 9.2 7.7 9.1 99 0.0 WNW 7 9 4 5 1028.3 1028.3 0.2
29/04:00am 9.3 8.0 9.2 99 0.0 WNW 6 9 3 5 1028.3 1028.3 0.2
29/03:30am 8.8 7.2 8.7 99 0.0 WNW 7 9 4 5 1028.3 1028.3 0.2
29/03:00am 8.6 6.9 8.5 99 0.0 W 7 9 4 5 1028.4 1028.4 0.2
29/02:30am 7.9 6.1 7.8 99 0.0 W 7 9 4 5 1028.6 1028.6 0.2
29/02:00am 6.8 4.3 6.7 99 0.0 WNW 9 9 5 5 1028.6 1028.6 0.2
29/01:30am 6.4 3.8 6.3 99 0.0 NW 9 9 5 5 1028.6 1028.6 0.2
29/01:00am 6.3 3.7 6.2 99 0.0 WNW 9 11 5 6 1028.7 1028.7 0.2
29/12:48am 6.0 2.9 5.7 98 0.1 WNW 11 11 6 6 1028.7 1028.7 0.2
29/12:30am 6.0 3.3 5.7 98 0.1 NW 9 9 5 5 1028.6 1028.6 0.2
29/12:00am 7.0 4.1 6.6 97 0.2 NW 11 13 6 7 1028.5 1028.5 0.2
 
Date/Time
EST
Tmp

°C
App
Tmp
°C
Dew
Point
°C
Rel
Hum
%
Delta-T

°C
Wind Press
QNH
hPa
Press
MSL
hPa
Rain
since
9 am
mm
Dir
 
Spd
km/h
Gust
km/h
Spd
kts
Gust
kts
28/11:30pm 6.9 4.7 6.3 96 0.3 WNW 7 9 4 5 1028.5 1028.5 0.2
28/11:00pm 7.1 4.5 6.2 94 0.4 WNW 9 9 5 5 1028.7 1028.7 0.2
28/10:30pm 8.0 6.0 6.9 93 0.5 W 7 9 4 5 1028.8 1028.8 0.2
28/10:00pm 8.3 5.5 6.9 91 0.6 W 11 13 6 7 1029.0 1029.0 0.2
28/09:30pm 8.0 5.4 6.1 88 0.9 W 9 11 5 6 1029.0 1029.0 0.2
28/09:27pm 7.9 5.3 5.9 87 0.9 W 9 11 5 6 1029.0 1029.0 0.2
28/09:00pm 8.3 5.2 5.6 83 1.2 W 11 13 6 7 1028.8 1028.8 0.2
28/08:30pm 8.6 5.9 5.4 80 1.4 W 9 9 5 5 1028.6 1028.6 0.2
28/08:00pm 11.1 9.2 6.8 75 2.0 W 6 7 3 4 1028.3 1028.3 0.2
28/07:30pm 10.6 8.3 5.6 71 2.3 S 7 9 4 5 1028.0 1028.0 0.2
28/07:00pm 12.0 9.9 5.9 66 2.8 SSE 6 7 3 4 1027.8 1027.8 0.2
28/06:30pm 12.9 10.8 5.8 62 3.3 SSE 6 6 3 3 1027.5 1027.5 0.2
28/06:00pm 13.6 11.5 6.0 60 3.6 SE 6 7 3 4 1027.4 1027.4 0.2
28/05:30pm 14.1 12.0 6.5 60 3.7 SE 7 13 4 7 1027.2 1027.2 0.2
28/05:00pm 15.2 12.5 7.2 59 3.9 SSE 11 13 6 7 1027.0 1027.0 0.2
28/04:30pm 15.6 12.5 7.4 58 4.1 SSE 13 17 7 9 1026.8 1026.8 0.2
28/04:00pm 15.8 12.3 7.3 57 4.2 SSE 15 19 8 10 1026.8 1026.8 0.2
28/03:30pm 15.7 12.4 8.0 60 3.9 SE 15 20 8 11 1026.9 1026.9 0.2
28/03:00pm 15.9 12.7 8.4 61 3.8 SE 15 19 8 10 1026.9 1026.9 0.2
28/02:30pm 16.6 13.7 8.3 58 4.2 SE 13 17 7 9 1026.9 1026.9 0.2
28/02:00pm 16.2 13.6 9.2 63 3.6 SSE 13 17 7 9 1027.0 1027.0 0.2
28/01:30pm 16.4 14.1 10.3 67 3.2 SE 13 15 7 8 1027.1 1027.1 0.2
28/01:29pm 16.3 13.9 9.9 66 3.4 SE 13 15 7 8 1027.1 1027.1 0.2
28/01:00pm 16.3 14.5 10.8 70 2.9 SE 11 13 6 7 1027.5 1027.5 0.2
28/12:30pm 16.2 14.7 10.7 70 2.9 SE 9 11 5 6 1027.8 1027.8 0.2
28/12:09pm 16.1 15.4 11.5 74 2.5 ESE 6 11 3 6 1028.2 1028.2 0.0
28/12:00pm 15.9 16.6 12.1 78 2.1 CALM 0 0 0 0 1028.2 1028.2 0.0
28/11:30am 14.4 14.4 13.6 95 0.4 SE 6 7 3 4 1028.7 1028.7 0.0
28/11:11am 13.9 13.9 13.7 99 0.1 SE 6 9 3 5 1028.9 1028.9 0.0
28/11:00am 13.3 13.1 13.1 99 0.1 ESE 6 9 3 5 1029.1 1029.1 0.0
28/10:30am 11.8 11.6 11.8 100 0.0 ESE 4 7 2 4 1029.3 1029.3 0.0
28/10:12am 11.3 11.7 11.3 100 0.0 CALM 0 0 0 0 1029.5 1029.5 0.0
28/10:00am 10.4 9.8 10.4 100 0.0 S 4 7 2 4 1029.6 1029.6 0.0
28/09:30am 9.2 8.7 9.2 100 0.0 NNE 2 6 1 3 1029.8 1029.8 0.0
28/09:00am 8.4 6.3 8.3 99 0.0 NNE 9 11 5 6 1029.7 1029.7 0.2
28/08:30am 7.8 5.6 7.7 99 0.0 NNE 9 13 5 7 1029.6 1029.6 0.2
28/08:00am 7.1 4.7 7.0 99 0.0 N 9 11 5 6 1029.6 1029.6 0.2
28/07:30am 6.5 4.3 6.4 99 0.0 N 7 9 4 5 1029.5 1029.5 0.2
28/07:00am 6.2 4.2 6.1 99 0.0 NNE 6 9 3 5 1029.3 1029.3 0.2
28/06:30am 5.3 3.1 5.2 99 0.0 NNE 6 7 3 4 1029.1 1029.1 0.2
28/06:00am 5.5 3.3 5.4 99 0.0 NNE 6 7 3 4 1029.1 1029.1 0.2
28/05:30am 5.3 2.9 5.2 99 0.0 N 7 9 4 5 1028.8 1028.8 0.2
28/05:00am 5.8 3.5 5.7 99 0.0 N 7 9 4 5 1028.8 1028.8 0.2
28/04:30am 6.7 4.2 6.6 99 0.0 NNW 9 11 5 6 1028.7 1028.7 0.2
28/04:00am 7.5 5.6 7.4 99 0.0 N 7 9 4 5 1028.6 1028.6 0.2
28/03:30am 8.2 7.8 8.1 99 0.0 CALM 0 6 0 3 1028.6 1028.6 0.2
28/03:00am 8.3 7.5 8.2 99 0.0 NW 2 7 1 4 1028.7 1028.7 0.2
28/02:30am 8.5 7.0 8.4 99 0.0 WNW 6 7 3 4 1028.9 1028.9 0.2
28/02:00am 8.8 7.8 8.7 99 0.0 W 4 7 2 4 1029.0 1029.0 0.2
28/01:30am 8.8 8.1 8.7 99 0.0 W 2 6 1 3 1029.0 1029.0 0.2
28/01:00am 9.2 8.6 9.1 99 0.0 W 2 9 1 5 1029.1 1029.1 0.2
28/12:30am 9.2 7.9 9.1 99 0.0 W 6 7 3 4 1029.1 1029.1 0.2
28/12:00am 9.2 7.9 9.1 99 0.0 WNW 6 7 3 4 1029.3 1029.3 0.2
 
Date/Time
EST
Tmp

°C
App
Tmp
°C
Dew
Point
°C
Rel
Hum
%
Delta-T

°C
Wind Press
QNH
hPa
Press
MSL
hPa
Rain
since
9 am
mm
Dir
 
Spd
km/h
Gust
km/h
Spd
kts
Gust
kts
27/11:30pm 9.2 7.7 9.1 99 0.0 NW 7 11 4 6 1029.4 1029.4 0.2
27/11:00pm 9.2 7.3 9.1 99 0.0 NNW 9 13 5 7 1029.2 1029.2 0.2
27/10:30pm 9.4 7.6 9.3 99 0.0 N 9 13 5 7 1029.2 1029.2 0.2
27/10:00pm 10.0 8.3 9.9 99 0.0 NW 9 13 5 7 1029.0 1029.0 0.2
27/09:30pm 9.9 7.8 9.8 99 0.1 NW 11 15 6 8 1028.8 1028.8 0.2
27/09:05pm 8.9 6.5 8.8 99 0.0 NW 11 13 6 7 1028.7 1028.7 0.2
27/09:00pm 8.6 6.6 8.5 99 0.0 NW 9 13 5 7 1028.7 1028.7 0.2
27/08:30pm 8.6 6.5 8.3 98 0.1 NW 9 13 5 7 1028.7 1028.7 0.2
27/08:00pm 9.8 9.7 9.5 98 0.1 CALM 0 0 0 0 1028.6 1028.6 0.2
27/07:54pm 10.0 10.0 9.7 98 0.2 CALM 0 0 0 0 1028.6 1028.6 0.2
27/07:30pm 10.2 10.2 9.9 98 0.2 CALM 0 4 0 2 1028.3 1028.3 0.2
27/07:00pm 10.3 8.6 10.0 98 0.2 SSW 9 11 5 6 1028.2 1028.2 0.2
27/06:30pm 10.0 8.6 9.4 96 0.3 S 7 11 4 6 1027.8 1027.8 0.2
27/06:00pm 10.6 8.1 9.7 94 0.4 S 13 17 7 9 1027.7 1027.7 0.2
27/05:45pm 10.7 8.5 9.3 91 0.7 SSE 11 15 6 8 1027.7 1027.7 0.2
27/05:34pm 11.2 8.2 9.3 88 1.0 SSE 15 19 8 10 1027.6 1027.6 0.2
27/05:30pm 11.9 9.0 9.8 87 1.1 SSE 15 19 8 10 1027.6 1027.6 0.2
27/05:00pm 13.1 10.6 9.7 80 1.7 SE 13 19 7 10 1027.4 1027.4 0.2
27/04:30pm 15.3 13.3 10.3 72 2.6 SE 11 15 6 8 1027.1 1027.1 0.2
27/04:00pm 15.5 13.5 10.1 70 2.8 SSE 11 15 6 8 1027.1 1027.1 0.2
27/03:30pm 16.2 14.3 10.5 69 3.0 SE 11 13 6 7 1027.0 1027.0 0.2
27/03:00pm 16.5 14.6 10.6 68 3.1 SE 11 15 6 8 1026.9 1026.9 0.2
27/02:30pm 17.0 14.6 10.1 64 3.6 SSE 13 19 7 10 1027.0 1027.0 0.2
27/02:00pm 17.4 13.8 8.3 55 4.6 S 17 26 9 14 1027.1 1027.1 0.2
27/01:30pm 17.7 15.2 9.8 60 4.2 SE 13 20 7 11 1027.2 1027.2 0.2
27/01:00pm 17.6 15.7 10.5 63 3.8 SSE 11 17 6 9 1027.2 1027.2 0.2
27/12:30pm 17.5 15.4 9.7 60 4.1 SSW 11 13 6 7 1027.7 1027.7 0.0
27/12:00pm 16.7 15.7 11.0 69 3.0 SSW 7 13 4 7 1028.0 1028.0 0.0
27/11:30am 15.7 15.2 10.7 72 2.7 E 4 9 2 5 1028.3 1028.3 0.0
27/11:00am 14.8 14.0 11.2 79 1.9 SSE 6 9 3 5 1028.5 1028.5 0.0
27/10:30am 13.8 13.0 11.7 87 1.1 S 7 9 4 5 1028.7 1028.7 0.0
27/10:00am 12.8 13.5 12.2 96 0.3 CALM 0 6 0 3 1028.6 1028.6 0.0
27/09:30am 11.2 11.2 11.0 99 0.1 NE 2 7 1 4 1028.5 1028.5 0.0
27/09:00am 10.2 8.9 10.0 99 0.1 NNW 7 9 4 5 1028.2 1028.2 0.2
27/08:30am 7.8 6.1 7.7 99 0.0 N 6 7 3 4 1028.3 1028.3 0.2
27/08:00am 5.2 3.3 5.1 99 0.0 N 4 6 2 3 1028.1 1028.1 0.2
27/07:55am 4.9 2.6 4.8 99 0.0 N 6 7 3 4 1028.1 1028.1 0.2
27/07:30am 4.0 1.0 3.9 99 0.0 N 9 9 5 5 1027.9 1027.9 0.2
27/07:18am 4.0 1.5 3.9 99 0.0 NNE 6 7 3 4 1027.9 1027.9 0.2
27/07:14am 4.0 1.5 3.9 99 0.0 NE 6 7 3 4 1027.8 1027.8 0.2
27/07:00am 3.6 1.1 3.5 99 0.0 NNE 6 7 3 4 1027.7 1027.7 0.2
27/06:39am 3.7 1.2 3.6 99 0.0 NNE 6 7 3 4 1027.4 1027.4 0.2
27/06:33am 3.9 1.2 3.8 99 0.0 NNE 7 7 4 4 1027.3 1027.3 0.2
27/06:30am 4.1 1.5 4.0 99 0.0 NNE 7 7 4 4 1027.3 1027.3 0.2
27/06:00am 3.8 1.7 3.7 99 0.0 NNE 4 7 2 4 1027.1 1027.1 0.2
27/05:53am 3.9 1.4 3.8 99 0.0 NNE 6 7 3 4 1027.0 1027.0 0.2
27/05:30am 5.0 2.1 4.9 99 0.0 NNE 9 11 5 6 1027.0 1027.0 0.2
27/05:00am 3.9 2.5 3.8 99 0.0 CALM 0 4 0 2 1027.0 1027.0 0.2
27/04:49am 4.3 2.6 4.2 99 0.0 SW 2 6 1 3 1027.0 1027.0 0.2
27/04:30am 5.0 2.5 4.9 99 0.0 SW 7 9 4 5 1026.9 1026.9 0.2
27/04:00am 4.5 2.1 4.4 99 0.0 SW 6 7 3 4 1026.5 1026.5 0.2

Latest Capital City Observations: Canberra | Sydney | Melbourne | Brisbane | Adelaide | Perth | Hobart | Darwin

Other Formats:

Comma delimited format used in spreadsheet applications
http://www.bom.gov.au/fwo/IDV60901/IDV60901.94865.axf

JavaScript Object Notation format (JSON) in row-major order
http://www.bom.gov.au/fwo/IDV60901/IDV60901.94865.json